createdAt,value
2022-12-22T00:01:17.985Z,6.90
2022-12-22T00:04:03.182Z,6.80
2022-12-22T00:06:48.670Z,6.70
2022-12-22T00:09:33.732Z,6.80
2022-12-22T00:12:18.846Z,6.80
2022-12-22T00:15:04.447Z,6.80
2022-12-22T00:17:49.483Z,6.80
2022-12-22T00:20:39.243Z,6.80
2022-12-22T00:23:24.501Z,6.80
2022-12-22T00:26:09.753Z,6.80
2022-12-22T00:28:55.285Z,6.80
2022-12-22T00:31:40.835Z,6.90
2022-12-22T00:34:34.071Z,6.90
2022-12-22T00:37:19.114Z,6.80
2022-12-22T00:40:04.201Z,6.90
2022-12-22T00:42:49.507Z,6.90
2022-12-22T00:45:34.495Z,6.90
2022-12-22T00:48:19.546Z,7.00
2022-12-22T00:51:04.720Z,7.00
2022-12-22T00:53:49.734Z,6.90
2022-12-22T00:56:34.912Z,6.90
2022-12-22T00:59:20.424Z,6.90
2022-12-22T01:02:05.605Z,6.90
2022-12-22T01:04:50.990Z,6.90
2022-12-22T01:07:40.563Z,6.90
2022-12-22T01:10:30.261Z,6.80
2022-12-22T01:13:15.437Z,6.80
2022-12-22T01:16:00.574Z,6.70
2022-12-22T01:18:45.848Z,6.70
2022-12-22T01:21:31.046Z,6.60
2022-12-22T01:24:15.990Z,6.60
2022-12-22T01:27:01.425Z,6.60
2022-12-22T01:29:46.241Z,6.60
2022-12-22T01:32:32.467Z,6.60
2022-12-22T01:35:17.426Z,6.60
2022-12-22T01:38:02.579Z,6.60
2022-12-22T01:40:47.760Z,6.60
2022-12-22T01:43:41.450Z,6.70
2022-12-22T01:46:47.042Z,6.70
2022-12-22T01:49:54.752Z,6.70
2022-12-22T01:52:43.252Z,6.70
2022-12-22T01:55:33.805Z,6.70
2022-12-22T01:58:18.905Z,6.70
2022-12-22T02:01:05.506Z,6.70
2022-12-22T02:03:50.960Z,6.70
2022-12-22T02:06:44.992Z,6.60
2022-12-22T02:09:44.985Z,6.60
2022-12-22T02:12:37.230Z,6.60
2022-12-22T02:15:37.560Z,6.50
2022-12-22T02:18:33.703Z,6.50
2022-12-22T02:21:21.358Z,6.40
2022-12-22T02:24:12.769Z,6.30
2022-12-22T02:27:00.981Z,6.30
2022-12-22T02:29:47.015Z,6.30
2022-12-22T02:32:36.503Z,6.20
2022-12-22T02:35:27.883Z,6.20
2022-12-22T02:38:31.872Z,6.20
2022-12-22T02:41:40.300Z,6.10
2022-12-22T02:44:38.037Z,6.10
2022-12-22T02:47:31.838Z,6.20
2022-12-22T02:50:18.821Z,6.20
2022-12-22T02:53:04.883Z,6.10
2022-12-22T02:55:50.124Z,6.10
2022-12-22T02:58:35.467Z,6.10
2022-12-22T03:01:22.142Z,6.10
2022-12-22T03:04:07.763Z,6.10
2022-12-22T03:06:52.921Z,6.20
2022-12-22T03:09:38.102Z,6.20
2022-12-22T03:12:23.317Z,6.20
2022-12-22T03:15:08.363Z,6.10
2022-12-22T03:17:56.550Z,6.10
2022-12-22T03:20:41.697Z,6.20
2022-12-22T03:23:26.955Z,6.20
2022-12-22T03:25:53.971Z,6.20
2022-12-22T03:28:24.793Z,6.20
2022-12-22T03:30:56.076Z,6.20
2022-12-22T03:33:22.797Z,6.20
2022-12-22T03:35:49.362Z,6.20
2022-12-22T03:38:15.905Z,6.20
2022-12-22T03:40:45.632Z,6.20
2022-12-22T03:43:31.441Z,6.30
2022-12-22T03:46:17.124Z,6.40
2022-12-22T03:48:44.538Z,6.50
2022-12-22T03:51:11.029Z,6.50
2022-12-22T03:53:37.555Z,6.60
2022-12-22T03:56:07.696Z,6.60
2022-12-22T03:58:34.679Z,6.60
2022-12-22T04:01:05.240Z,6.70
2022-12-22T04:03:31.900Z,6.70
2022-12-22T04:05:58.580Z,6.80
2022-12-22T04:08:25.056Z,6.80
2022-12-22T04:11:10.504Z,6.80
2022-12-22T04:13:37.012Z,6.80
2022-12-22T04:16:03.591Z,6.90
2022-12-22T04:18:30.267Z,7.00
2022-12-22T04:20:56.764Z,7.00
2022-12-22T04:23:23.276Z,7.00
2022-12-22T04:25:49.799Z,7.10
2022-12-22T04:28:16.418Z,7.10
2022-12-22T04:30:45.773Z,7.10
2022-12-22T04:33:12.252Z,7.00
2022-12-22T04:35:38.766Z,7.00
2022-12-22T04:38:05.364Z,7.00
2022-12-22T04:40:31.862Z,7.00
2022-12-22T04:42:58.432Z,7.00
2022-12-22T04:45:24.952Z,7.00
2022-12-22T04:47:51.481Z,6.90
2022-12-22T04:50:18.045Z,6.90
2022-12-22T04:52:46.915Z,6.90
2022-12-22T04:55:13.477Z,6.80
2022-12-22T04:57:41.104Z,7.00
2022-12-22T05:00:08.735Z,7.00
2022-12-22T05:02:35.396Z,7.00
2022-12-22T05:05:02.057Z,7.00
2022-12-22T05:07:29.737Z,7.00
2022-12-22T05:09:56.260Z,7.00
2022-12-22T05:12:41.573Z,6.90
2022-12-22T05:15:08.338Z,7.00
2022-12-22T05:17:34.847Z,7.00
2022-12-22T05:20:01.519Z,7.00
2022-12-22T05:22:28.034Z,7.00
2022-12-22T05:24:57.516Z,7.00
2022-12-22T05:27:24.258Z,7.10
2022-12-22T05:29:50.752Z,7.10
2022-12-22T05:32:17.402Z,7.20
2022-12-22T05:34:44.177Z,7.20
2022-12-22T05:37:10.717Z,7.20
2022-12-22T05:39:37.210Z,7.10
2022-12-22T05:42:03.995Z,7.20
2022-12-22T05:44:30.591Z,7.20
2022-12-22T05:46:57.150Z,7.10
2022-12-22T05:49:23.735Z,7.00
2022-12-22T05:51:51.636Z,7.10
2022-12-22T05:54:18.201Z,7.10
2022-12-22T05:56:46.945Z,7.20
2022-12-22T05:59:13.469Z,7.20
2022-12-22T06:01:39.981Z,7.10
2022-12-22T06:04:06.629Z,7.10
2022-12-22T06:06:33.216Z,7.10
2022-12-22T06:08:59.733Z,7.10
2022-12-22T06:11:26.231Z,7.10
2022-12-22T06:13:52.761Z,7.10
2022-12-22T06:16:19.321Z,7.00
2022-12-22T06:18:45.871Z,7.10
2022-12-22T06:21:12.407Z,7.10
2022-12-22T06:23:38.907Z,7.00
2022-12-22T06:26:08.898Z,7.00
2022-12-22T06:28:35.422Z,7.00
2022-12-22T06:31:01.930Z,7.00
2022-12-22T06:33:28.557Z,6.90
2022-12-22T06:35:59.044Z,7.00
2022-12-22T06:38:26.826Z,7.00
2022-12-22T06:40:55.756Z,7.10
2022-12-22T06:43:22.326Z,7.20
2022-12-22T06:45:48.839Z,7.40
2022-12-22T06:48:17.887Z,7.50
2022-12-22T06:50:45.332Z,7.50
2022-12-22T06:53:12.818Z,7.50
2022-12-22T06:55:41.812Z,7.70
2022-12-22T06:58:10.284Z,7.70
2022-12-22T07:00:38.673Z,7.70
2022-12-22T07:03:09.844Z,7.90
2022-12-22T07:05:37.514Z,7.90
2022-12-22T07:08:08.758Z,8.00
2022-12-22T07:10:58.392Z,8.00
2022-12-22T07:13:26.307Z,8.00
2022-12-22T07:16:00.226Z,8.00
2022-12-22T07:18:40.095Z,8.00
2022-12-22T07:21:10.412Z,8.00
2022-12-22T07:23:39.644Z,8.00
2022-12-22T07:26:09.213Z,8.00
2022-12-22T07:28:38.256Z,8.00
2022-12-22T07:31:06.242Z,8.00
2022-12-22T07:33:34.845Z,7.90
2022-12-22T07:36:05.371Z,7.90
2022-12-22T07:38:34.793Z,7.90
2022-12-22T07:41:05.920Z,8.00
2022-12-22T07:43:34.152Z,8.00
2022-12-22T07:46:02.878Z,8.00
2022-12-22T07:48:50.205Z,8.10
2022-12-22T07:51:21.200Z,8.10
2022-12-22T07:53:49.372Z,8.30
2022-12-22T07:56:21.544Z,8.20
2022-12-22T07:58:51.665Z,8.20
2022-12-22T08:01:19.384Z,8.10
2022-12-22T08:03:47.867Z,8.20
2022-12-22T08:06:15.786Z,8.20
2022-12-22T08:08:45.531Z,8.30
2022-12-22T08:11:14.922Z,8.30
2022-12-22T08:13:44.017Z,8.20
2022-12-22T08:16:18.218Z,8.20
2022-12-22T08:18:45.391Z,8.30
2022-12-22T08:21:16.355Z,8.30
2022-12-22T08:23:48.158Z,8.30
2022-12-22T08:26:33.271Z,8.30
2022-12-22T08:29:05.891Z,8.30
2022-12-22T08:31:43.018Z,8.20
2022-12-22T08:34:13.842Z,8.20
2022-12-22T08:36:42.688Z,8.20
2022-12-22T08:39:18.305Z,8.30
2022-12-22T08:41:51.905Z,8.30
2022-12-22T08:44:26.378Z,8.40
2022-12-22T08:46:55.115Z,8.40
2022-12-22T08:49:24.176Z,8.40
2022-12-22T08:51:55.619Z,8.60
2022-12-22T08:54:31.214Z,8.60
2022-12-22T08:56:58.677Z,8.70
2022-12-22T08:59:25.221Z,8.80
2022-12-22T09:01:51.939Z,8.80
2022-12-22T09:04:19.948Z,8.80
2022-12-22T09:06:46.507Z,8.80
2022-12-22T09:09:13.853Z,8.90
2022-12-22T09:11:40.747Z,8.80
2022-12-22T09:14:08.211Z,8.80
2022-12-22T09:16:34.877Z,8.80
2022-12-22T09:19:01.984Z,8.80
2022-12-22T09:21:28.762Z,8.90
2022-12-22T09:23:55.937Z,9.00
2022-12-22T09:26:23.375Z,9.00
2022-12-22T09:28:50.970Z,9.00
2022-12-22T09:31:18.830Z,9.10
2022-12-22T09:33:45.481Z,9.10
2022-12-22T09:36:13.235Z,9.20
2022-12-22T09:38:40.655Z,9.20
2022-12-22T09:41:22.450Z,9.10
2022-12-22T09:43:49.034Z,9.20
2022-12-22T09:46:25.376Z,9.10
2022-12-22T09:48:52.456Z,9.10
2022-12-22T09:51:26.189Z,9.20
2022-12-22T09:54:00.882Z,9.20
2022-12-22T09:56:28.561Z,9.20
2022-12-22T09:58:55.199Z,9.20
2022-12-22T10:01:21.791Z,9.30
2022-12-22T10:03:55.073Z,9.20
2022-12-22T10:06:37.015Z,9.20
2022-12-22T10:09:44.154Z,9.10
2022-12-22T10:11:59.678Z,9.20
2022-12-22T10:14:36.872Z,9.20
2022-12-22T10:17:20.501Z,9.10
2022-12-22T10:19:47.934Z,9.20
2022-12-22T10:22:20.349Z,9.20
2022-12-22T10:24:46.887Z,9.10
2022-12-22T10:27:13.681Z,9.10
2022-12-22T10:29:40.311Z,9.10
2022-12-22T10:32:14.416Z,9.20
2022-12-22T10:34:59.828Z,9.20
2022-12-22T10:37:31.336Z,9.20
2022-12-22T10:39:57.980Z,9.40
2022-12-22T10:42:24.543Z,9.40
2022-12-22T10:44:51.194Z,9.50
2022-12-22T10:47:20.360Z,9.60
2022-12-22T10:49:48.005Z,9.70
2022-12-22T10:52:15.896Z,9.70
2022-12-22T10:54:44.131Z,9.80
2022-12-22T10:57:13.698Z,9.90
2022-12-22T10:59:49.123Z,9.80
2022-12-22T11:02:22.680Z,9.90
2022-12-22T11:04:50.233Z,10.00
2022-12-22T11:07:16.786Z,10.10
2022-12-22T11:12:54.772Z,10.20
2022-12-22T11:15:24.492Z,10.30
2022-12-22T11:17:54.676Z,10.30
2022-12-22T11:20:21.420Z,10.30
2022-12-22T11:23:00.622Z,10.30
2022-12-22T11:25:36.822Z,10.30
2022-12-22T11:28:08.854Z,10.40
2022-12-22T11:30:41.218Z,10.40
2022-12-22T11:33:17.263Z,10.40
2022-12-22T11:35:51.133Z,10.40
2022-12-22T11:38:23.791Z,10.40
2022-12-22T11:41:07.371Z,10.40
2022-12-22T11:43:52.225Z,10.40
2022-12-22T11:46:33.047Z,10.40
2022-12-22T11:49:19.932Z,10.40
2022-12-22T11:51:57.369Z,10.30
2022-12-22T11:54:34.068Z,10.30
2022-12-22T11:57:20.859Z,10.20
2022-12-22T11:59:56.366Z,10.20
2022-12-22T12:02:23.190Z,10.20
2022-12-22T12:05:08.455Z,10.20
2022-12-22T12:07:40.755Z,10.20
2022-12-22T12:10:07.466Z,10.20
2022-12-22T12:12:55.572Z,10.30
2022-12-22T12:15:25.408Z,10.30
2022-12-22T12:18:04.579Z,10.30
2022-12-22T12:20:49.088Z,10.20
2022-12-22T12:23:18.742Z,10.20
2022-12-22T12:26:01.304Z,10.20
2022-12-22T12:28:27.880Z,10.20
2022-12-22T12:30:58.985Z,10.20
2022-12-22T12:33:25.521Z,10.20
2022-12-22T12:36:10.665Z,10.10
2022-12-22T12:39:07.408Z,10.10
2022-12-22T12:41:50.592Z,10.00
2022-12-22T12:44:18.834Z,9.90
2022-12-22T12:46:53.234Z,9.90
2022-12-22T12:49:51.461Z,9.90
2022-12-22T12:52:18.111Z,9.90
2022-12-22T12:54:47.756Z,9.90
2022-12-22T12:57:28.192Z,9.90
2022-12-22T12:59:56.427Z,9.90
2022-12-22T13:02:36.859Z,9.90
2022-12-22T13:05:03.543Z,9.80
2022-12-22T13:07:49.159Z,9.90
2022-12-22T13:10:23.191Z,9.90
2022-12-22T13:12:54.548Z,9.90
2022-12-22T13:15:32.112Z,9.90
2022-12-22T13:17:59.450Z,9.90
2022-12-22T13:20:34.754Z,10.00
2022-12-22T13:23:03.197Z,10.00
2022-12-22T13:25:50.115Z,9.90
2022-12-22T13:28:17.585Z,9.90
2022-12-22T13:30:48.766Z,9.90
2022-12-22T13:33:17.922Z,9.90
2022-12-22T13:35:48.536Z,9.80
2022-12-22T13:38:27.335Z,9.80
2022-12-22T13:40:53.907Z,9.80
2022-12-22T13:43:20.916Z,9.70
2022-12-22T13:45:52.795Z,9.70
2022-12-22T13:48:21.832Z,9.80
2022-12-22T13:50:49.715Z,9.80
2022-12-22T13:53:49.966Z,9.80
2022-12-22T13:56:13.956Z,9.80
2022-12-22T13:58:41.688Z,9.60
2022-12-22T14:01:11.076Z,9.70
2022-12-22T14:04:03.211Z,9.70
2022-12-22T14:06:28.071Z,9.60
2022-12-22T14:09:08.718Z,9.60
2022-12-22T14:11:35.387Z,9.60
2022-12-22T14:14:06.070Z,9.60
2022-12-22T14:16:32.757Z,9.60
2022-12-22T14:18:59.915Z,9.60
2022-12-22T14:21:26.976Z,9.70
2022-12-22T14:23:53.750Z,9.70
2022-12-22T14:26:26.614Z,9.70
2022-12-22T14:28:54.650Z,9.70
2022-12-22T14:31:21.301Z,9.60
2022-12-22T14:33:55.304Z,9.60
2022-12-22T14:36:23.925Z,9.60
2022-12-22T14:38:52.489Z,9.50
2022-12-22T14:41:40.720Z,9.40
2022-12-22T14:44:13.319Z,9.30
2022-12-22T14:46:40.555Z,9.20
2022-12-22T14:49:12.260Z,9.10
2022-12-22T14:51:38.764Z,9.10
2022-12-22T14:54:06.495Z,9.00
2022-12-22T14:56:33.137Z,9.00
2022-12-22T14:59:10.394Z,9.00
2022-12-22T15:01:37.336Z,8.90
2022-12-22T15:04:04.282Z,8.90
2022-12-22T15:06:34.310Z,8.90
2022-12-22T15:09:07.131Z,8.80
2022-12-22T15:11:34.098Z,8.80
2022-12-22T15:14:01.537Z,8.80
2022-12-22T15:16:28.161Z,8.80
2022-12-22T15:18:55.107Z,8.80
2022-12-22T15:21:22.830Z,8.80
2022-12-22T15:23:49.343Z,8.70
2022-12-22T15:26:15.924Z,8.60
2022-12-22T15:28:42.486Z,8.70
2022-12-22T15:31:13.117Z,8.70
2022-12-22T15:33:39.850Z,8.70
2022-12-22T15:36:06.656Z,8.80
2022-12-22T15:38:38.557Z,8.80
2022-12-22T15:41:06.029Z,8.80
2022-12-22T15:46:19.456Z,8.70
2022-12-22T15:48:46.447Z,8.80
2022-12-22T15:51:17.760Z,8.80
2022-12-22T15:53:44.545Z,8.70
2022-12-22T15:56:17.594Z,8.70
2022-12-22T15:58:44.726Z,8.70
2022-12-22T16:01:12.155Z,8.70
2022-12-22T16:03:38.890Z,8.70
2022-12-22T16:06:06.788Z,8.70
2022-12-22T16:08:37.641Z,8.70
2022-12-22T16:11:05.395Z,8.70
2022-12-22T16:13:31.946Z,8.70
2022-12-22T16:15:58.660Z,8.70
2022-12-22T16:18:25.422Z,8.70
2022-12-22T16:20:52.259Z,8.70
2022-12-22T16:23:20.738Z,8.70
2022-12-22T16:25:47.664Z,8.70
2022-12-22T16:28:16.096Z,8.60
2022-12-22T16:30:42.792Z,8.60
2022-12-22T16:33:12.664Z,8.60
2022-12-22T16:35:39.574Z,8.50
2022-12-22T16:38:06.391Z,8.50
2022-12-22T16:40:33.668Z,8.40
2022-12-22T16:45:49.212Z,8.40
2022-12-22T16:48:18.203Z,8.50
2022-12-22T16:50:45.838Z,8.50
2022-12-22T16:53:14.503Z,8.40
2022-12-22T16:55:41.692Z,8.40
2022-12-22T16:58:13.550Z,8.40
2022-12-22T17:00:42.136Z,8.40
2022-12-22T17:03:25.372Z,8.30
2022-12-22T17:05:53.918Z,8.30
2022-12-22T17:08:25.791Z,8.40
2022-12-22T17:10:53.782Z,8.40
2022-12-22T17:13:20.764Z,8.40
2022-12-22T17:15:47.398Z,8.40
2022-12-22T17:18:15.204Z,8.40
2022-12-22T17:20:41.786Z,8.40
2022-12-22T17:23:16.182Z,8.30
2022-12-22T17:25:42.676Z,8.20
2022-12-22T17:28:10.152Z,8.20
2022-12-22T17:30:36.675Z,8.20
2022-12-22T17:33:03.865Z,8.30
2022-12-22T17:35:33.198Z,8.30
2022-12-22T17:37:59.757Z,8.20
2022-12-22T17:40:32.379Z,8.30
2022-12-22T17:42:58.960Z,8.30
2022-12-22T17:45:25.660Z,8.20
2022-12-22T17:47:52.246Z,8.20
2022-12-22T17:50:19.690Z,8.20
2022-12-22T17:52:47.137Z,8.10
2022-12-22T17:55:49.747Z,8.10
2022-12-22T17:58:10.245Z,8.10
2022-12-22T18:00:36.789Z,8.10
2022-12-22T18:03:03.488Z,8.10
2022-12-22T18:05:34.786Z,8.00
2022-12-22T18:08:01.358Z,8.10
2022-12-22T18:10:39.530Z,8.00
2022-12-22T18:13:13.355Z,8.00
2022-12-22T18:15:39.853Z,7.90
2022-12-22T18:18:16.970Z,7.90
2022-12-22T18:20:44.527Z,7.90
2022-12-22T18:23:16.278Z,7.90
2022-12-22T18:25:43.065Z,7.80
2022-12-22T18:28:13.598Z,7.80
2022-12-22T18:30:40.182Z,7.80
2022-12-22T18:33:06.793Z,7.80
2022-12-22T18:35:33.515Z,7.80
2022-12-22T18:38:00.134Z,7.90
2022-12-22T18:40:36.639Z,7.80
2022-12-22T18:43:03.890Z,7.90
2022-12-22T18:45:31.078Z,7.80
2022-12-22T18:47:57.950Z,7.80
2022-12-22T18:50:28.900Z,7.80
2022-12-22T18:53:01.337Z,7.80
2022-12-22T18:55:29.317Z,7.80
2022-12-22T18:57:57.025Z,7.80
2022-12-22T19:00:25.759Z,7.70
2022-12-22T19:02:53.141Z,7.70
2022-12-22T19:05:21.635Z,7.70
2022-12-22T19:07:48.810Z,7.70
2022-12-22T19:10:16.529Z,7.70
2022-12-22T19:12:43.544Z,7.60
2022-12-22T19:15:19.179Z,7.60
2022-12-22T19:17:45.805Z,7.50
2022-12-22T19:20:19.640Z,7.40
2022-12-22T19:22:46.673Z,7.30
2022-12-22T19:25:15.482Z,7.10
2022-12-22T19:27:42.831Z,7.00
2022-12-22T19:30:17.088Z,7.00
2022-12-22T19:32:46.312Z,7.00
2022-12-22T19:35:17.861Z,6.90
2022-12-22T19:37:45.223Z,6.80
2022-12-22T19:40:12.452Z,6.80
2022-12-22T19:42:40.743Z,6.80
2022-12-22T19:45:27.108Z,6.80
2022-12-22T19:47:54.364Z,6.80
2022-12-22T19:50:25.863Z,6.90
2022-12-22T19:52:53.028Z,7.00
2022-12-22T19:55:20.612Z,7.00
2022-12-22T19:57:48.325Z,7.00
2022-12-22T20:00:18.032Z,6.90
2022-12-22T20:02:45.311Z,6.80
2022-12-22T20:05:27.233Z,6.80
2022-12-22T20:07:55.377Z,6.80
2022-12-22T20:10:22.499Z,6.70
2022-12-22T20:12:50.955Z,6.70
2022-12-22T20:15:25.006Z,6.80
2022-12-22T20:17:52.739Z,6.80
2022-12-22T20:20:20.792Z,6.90
2022-12-22T20:22:49.611Z,6.90
2022-12-22T20:25:17.327Z,6.80
2022-12-22T20:27:43.932Z,6.80
2022-12-22T20:30:16.812Z,6.80
2022-12-22T20:32:43.446Z,6.70
2022-12-22T20:35:10.477Z,6.60
2022-12-22T20:37:37.086Z,6.60
2022-12-22T20:40:04.574Z,6.70
2022-12-22T20:42:31.688Z,6.70
2022-12-22T20:45:02.299Z,6.70
2022-12-22T20:47:31.571Z,6.80
2022-12-22T20:49:58.126Z,6.80
2022-12-22T20:52:24.639Z,6.90
2022-12-22T20:54:51.189Z,6.90
2022-12-22T20:57:17.749Z,6.90
2022-12-22T20:59:49.191Z,6.90
2022-12-22T21:02:23.480Z,6.90
2022-12-22T21:04:50.143Z,7.00
2022-12-22T21:07:16.663Z,7.00
2022-12-22T21:09:43.175Z,7.00
2022-12-22T21:12:09.715Z,7.00
2022-12-22T21:14:36.256Z,7.00
2022-12-22T21:17:03.053Z,7.00
2022-12-22T21:19:29.645Z,7.00
2022-12-22T21:21:56.330Z,7.00
2022-12-22T21:24:22.904Z,7.00
2022-12-22T21:26:52.694Z,7.00
2022-12-22T21:29:20.699Z,7.00
2022-12-22T21:31:50.219Z,7.00
2022-12-22T21:34:19.254Z,7.00
2022-12-22T21:36:46.717Z,7.10
2022-12-22T21:39:27.721Z,7.10
2022-12-22T21:42:00.223Z,7.10
2022-12-22T21:44:27.416Z,7.20
2022-12-22T21:46:54.089Z,7.20
2022-12-22T21:49:22.324Z,7.20
2022-12-22T21:51:49.575Z,7.20
2022-12-22T21:54:17.035Z,7.20
2022-12-22T21:56:43.752Z,7.20
2022-12-22T21:59:10.392Z,7.20
2022-12-22T22:01:37.837Z,7.20
2022-12-22T22:04:04.599Z,7.20
2022-12-22T22:06:31.209Z,7.20
2022-12-22T22:08:57.787Z,7.20
2022-12-22T22:11:25.689Z,7.30
2022-12-22T22:13:52.581Z,7.30
2022-12-22T22:16:19.490Z,7.30
2022-12-22T22:18:46.817Z,7.40
2022-12-22T22:21:14.376Z,7.40
2022-12-22T22:23:41.121Z,7.30
2022-12-22T22:26:07.817Z,7.30
2022-12-22T22:28:34.897Z,7.40
2022-12-22T22:31:02.379Z,7.30
2022-12-22T22:33:29.736Z,7.30
2022-12-22T22:35:59.353Z,7.30
2022-12-22T22:38:30.454Z,7.20
2022-12-22T22:40:58.121Z,7.30
2022-12-22T22:43:24.643Z,7.20
2022-12-22T22:45:51.302Z,7.20
2022-12-22T22:48:20.121Z,7.20
2022-12-22T22:50:46.744Z,7.20
2022-12-22T22:53:13.394Z,7.20
2022-12-22T22:55:39.966Z,7.20
2022-12-22T22:58:07.307Z,7.20
2022-12-22T23:00:34.183Z,7.10
2022-12-22T23:03:00.955Z,7.10
2022-12-22T23:05:27.676Z,7.10
2022-12-22T23:07:54.222Z,7.10
2022-12-22T23:10:20.872Z,7.20
2022-12-22T23:12:47.486Z,7.20
2022-12-22T23:15:14.008Z,7.20
2022-12-22T23:17:40.506Z,7.20
2022-12-22T23:20:07.389Z,7.20
2022-12-22T23:22:33.933Z,7.20
2022-12-22T23:25:00.503Z,7.20
2022-12-22T23:27:27.014Z,7.20
2022-12-22T23:29:53.511Z,7.30
2022-12-22T23:32:20.011Z,7.20
2022-12-22T23:34:47.541Z,7.40
2022-12-22T23:37:19.260Z,7.40
2022-12-22T23:39:46.772Z,7.40
2022-12-22T23:42:13.325Z,7.40
2022-12-22T23:44:39.930Z,7.40
2022-12-22T23:47:06.795Z,7.40
2022-12-22T23:49:33.356Z,7.50
2022-12-22T23:51:59.888Z,7.40
2022-12-22T23:54:26.399Z,7.40
2022-12-22T23:56:52.894Z,7.40
2022-12-22T23:59:19.447Z,7.40
